Parkdale, Ohio
Current Conditions -  °F | °C
As of 6:53 AM on Tuesday 27 Jan 2015 (Local Time) from KHAO Reporting Station
Clear Clear  
Wind Chill: 10°   Ceiling: Unl
Heat Index: 17°   Visibility: 10mi
Dew Point: 12°   Wind: 5mph
Humidity: 81%   Direction: 60°ENE
Pressure: 30.02"   Gusts: NA
Location:  39.2843°N, 84.5257°W
Report Text: KHAO 271153Z AUTO 06004KT 10SM CLR M08/M11 A3002 RMK AO2 SLP175 60000 T10831111 11061 21083 53021
Loading
Personal Weather Stations






























Interactive Weather Map New forecast layout! Learn more

10-Day Weather Forecast

Advertisements
Track Severe Weather on mobile